Kezdőlap
METAR-TAF:

METAR-TAF

Repülőterek :

St. Moritz, Svájc

földrajzi szélesség: 46-32-03N, földrajzi hosszúság: 9-53-03E, magasság: 1707 m

Jelenlegi meteorológiai megfigyelések

A jelentés 27 perccel ezelõtt készült, 13:20 UTC
Észak-északnyugati szél 15 kt
Hőmérséklet 1°C
Páratartalom 37%
Légköri nyomás 1024 hPa
Látótávolság 10 km, vagy több
felhőtlen 1500 m magasságban, és nincs gomolyfelhõ

METAR: LSZS 181320Z 33015KT CAVOK 01/M12 Q1024 RMK N TL 170

Idő: 14:47 (13:47 UTC)

Előrejelzés

A jelentés 2 órával és 22 perccel ezelõtt készült, 11:25 UTC
Az előrejelzés 18-én 12 óra UTC és 18-én 21 óra UTC között érvényes
Észak-északkeleti szél 7 kt
Látótávolság 10 km, vagy több
felhőtlen 1500 m magasságban, és nincs gomolyfelhõ

TAF: LSZS 181125Z 1812/1821 02007KT CAVOK TX03/1814Z

Meteorológiai megfigyelések és előrejelzések több, mint 4000 repülőtéren (METAR és TAF jelentéseket).

A térképen piros és sárga pontok jelzik az elérhető meteorológiai állomásokat.

Mozgassa az egeret a pont fölött, hogy megjelenjen az állomás neve.

Azután kattintson az időjárási megfigyelések és előrejelzések megtekintéséhez.

A térkép megváltoztatása: kattintson a fekete keresztel jelölt zöld gombra ráközelítéshez, a vonallal jelölt zöld gombra távolításhoz, vagy a zöld nyilakra a szomszédos térképek eléréséhez.


METAR-TAF: